Time;durP1;ratioP1;P1;durP2;ratioP2;P2;SDS_P1;SDS_P2;PMS_P1;PMS_P2;Temp;Humidity;BMP_temperature;BMP_pressure;BME280_temperature;BME280_humidity;BME280_pressure;Samples;Min_cycle;Max_cycle;Signal;HPM_P1;HPM_P2
2022/11/17 00:02:24;;;;;;;29.87;23.70;;;;;;;9.76;83.67;93740.69;5062415;28;20208;-71
2022/11/17 00:04:49;;;;;;;27.43;23.27;;;;;;;9.76;83.93;93732.81;5071830;28;20245;-70
2022/11/17 00:07:15;;;;;;;27.97;24.47;;;;;;;9.68;84.09;93722.41;5072058;28;20711;-71
2022/11/17 00:09:40;;;;;;;29.70;24.43;;;;;;;9.77;83.91;93721.31;5070536;28;20196;-69
2022/11/17 00:14:49;;;;;;;29.33;23.20;;;;;;;9.76;84.06;93718.88;5078453;28;20287;-70
2022/11/17 00:17:15;;;;;;;29.13;24.23;;;;;;;9.85;83.68;93708.13;5068269;28;20188;-69
2022/11/17 00:22:24;;;;;;;30.50;24.23;;;;;;;9.91;83.66;93710.00;5082068;28;20239;-69
2022/11/17 00:24:50;;;;;;;28.10;24.10;;;;;;;9.78;83.71;93701.13;5071233;28;20200;-69
2022/11/17 00:27:16;;;;;;;29.93;24.30;;;;;;;9.69;84.20;93703.03;5069565;28;20547;-70
2022/11/17 00:29:41;;;;;;;28.50;24.50;;;;;;;9.69;84.35;93705.66;5064741;28;20198;-70
2022/11/17 00:34:58;;;;;;;29.03;24.33;;;;;;;9.68;84.22;93707.47;5077618;28;20195;-70
2022/11/17 00:37:25;;;;;;;29.70;26.37;;;;;;;9.72;84.00;93700.84;5071371;28;20184;-70
2022/11/17 00:39:51;;;;;;;32.60;26.10;;;;;;;9.61;84.60;93710.97;5082679;28;20190;-72
2022/11/17 00:42:16;;;;;;;32.27;26.53;;;;;;;9.58;85.14;93717.38;5068411;28;20207;-71
2022/11/17 00:44:41;;;;;;;32.43;27.03;;;;;;;9.63;84.80;93725.56;5066397;28;20278;-70
2022/11/17 00:47:07;;;;;;;30.07;25.53;;;;;;;9.67;84.60;93703.19;5065589;28;20200;-70
2022/11/17 00:49:33;;;;;;;29.23;24.93;;;;;;;9.62;84.89;93691.59;5063604;28;20203;-71
2022/11/17 00:51:58;;;;;;;31.57;24.10;;;;;;;9.64;84.95;93715.88;5067073;28;20221;-71
2022/11/17 00:54:24;;;;;;;31.90;26.47;;;;;;;9.79;84.41;93700.16;5069097;28;20220;-71
2022/11/17 00:56:49;;;;;;;32.13;24.83;;;;;;;9.76;84.04;93684.75;5061626;28;20195;-71
2022/11/17 00:59:15;;;;;;;31.33;24.93;;;;;;;9.72;84.27;93689.53;5064155;28;20554;-71
2022/11/17 01:01:41;;;;;;;29.63;24.77;;;;;;;9.66;84.64;93687.63;5067901;28;20237;-72
2022/11/17 01:04:07;;;;;;;27.27;24.00;;;;;;;9.65;84.81;93670.25;5069280;28;20188;-72
2022/11/17 01:06:39;;;;;;;31.10;25.40;;;;;;;9.65;85.19;93676.31;5071810;28;20198;-71
2022/11/17 01:09:14;;;;;;;31.47;24.77;;;;;;;9.70;85.32;93689.72;5064612;28;20261;-71
2022/11/17 01:11:41;;;;;;;29.63;24.13;;;;;;;9.75;84.79;93686.56;5070354;28;20469;-71
2022/11/17 01:14:08;;;;;;;23.63;21.07;;;;;;;9.72;84.11;93673.78;5059595;28;20229;-71
2022/11/17 01:16:34;;;;;;;22.77;20.33;;;;;;;9.51;84.54;93674.47;5061679;28;20208;-71
2022/11/17 01:19:01;;;;;;;23.57;20.23;;;;;;;9.45;85.64;93670.75;5064265;28;20209;-71
2022/11/17 01:21:28;;;;;;;25.33;20.97;;;;;;;9.57;85.46;93683.44;5060289;28;20292;-71
2022/11/17 01:23:56;;;;;;;25.23;20.83;;;;;;;9.62;84.97;93679.31;5065530;28;20193;-70
2022/11/17 01:26:27;;;;;;;25.63;20.87;;;;;;;9.56;84.74;93672.13;5065074;28;20186;-72
2022/11/17 01:28:54;;;;;;;24.47;20.43;;;;;;;9.61;84.73;93672.41;5065444;28;20193;-71
2022/11/17 01:31:22;;;;;;;24.63;20.13;;;;;;;9.57;84.61;93675.56;5063395;28;20191;-71
2022/11/17 01:33:48;;;;;;;24.10;21.60;;;;;;;9.59;84.84;93663.09;5058399;28;20181;-71
2022/11/17 01:36:29;;;;;;;24.00;21.50;;;;;;;9.57;84.77;93667.69;5063936;28;20191;-71
2022/11/17 01:38:55;;;;;;;26.87;21.67;;;;;;;9.60;84.81;93678.66;5060118;28;20331;-71
2022/11/17 01:41:25;;;;;;;24.40;20.87;;;;;;;9.57;85.08;93679.03;5063574;28;20260;-72
2022/11/17 01:43:53;;;;;;;25.17;22.43;;;;;;;9.57;84.43;93654.56;5065459;28;20709;-72
2022/11/17 01:46:24;;;;;;;25.20;21.27;;;;;;;9.63;85.39;93673.06;5063488;28;20189;-71
2022/11/17 01:48:51;;;;;;;24.80;21.57;;;;;;;9.63;84.79;93652.06;5058983;28;20189;-71
2022/11/17 01:51:17;;;;;;;25.13;21.30;;;;;;;9.64;84.40;93660.75;5058701;28;20280;-71
2022/11/17 01:53:44;;;;;;;27.53;23.43;;;;;;;9.70;84.62;93658.25;5063495;28;20224;-71
2022/11/17 01:56:18;;;;;;;25.60;22.20;;;;;;;9.62;84.47;93639.09;5065404;28;20238;-72
2022/11/17 01:58:53;;;;;;;27.83;23.73;;;;;;;9.52;84.62;93644.63;5061755;28;20205;-72
2022/11/17 02:01:19;;;;;;;29.17;23.43;;;;;;;9.49;85.27;93650.25;5064736;28;20213;-70
2022/11/17 02:03:47;;;;;;;25.30;22.33;;;;;;;9.72;83.94;93650.16;5058468;28;20295;-69
2022/11/17 02:06:27;;;;;;;27.27;24.27;;;;;;;9.63;83.88;93638.13;5062964;28;20285;-71
2022/11/17 02:08:53;;;;;;;28.20;23.03;;;;;;;9.58;84.62;93638.66;5063778;28;20189;-70
2022/11/17 02:11:20;;;;;;;27.70;24.23;;;;;;;9.55;84.68;93639.03;5067227;28;20284;-71
2022/11/17 02:13:47;;;;;;;27.93;24.97;;;;;;;9.56;84.97;93645.09;5055465;28;20285;-71
2022/11/17 02:16:14;;;;;;;27.80;24.30;;;;;;;9.66;84.38;93641.19;5061716;28;20200;-71
2022/11/17 02:18:40;;;;;;;25.17;21.90;;;;;;;9.67;83.98;93611.31;5061434;28;20213;-71
2022/11/17 02:21:43;;;;;;;27.13;22.57;;;;;;;9.55;84.65;93632.97;5058301;28;20193;-71
2022/11/17 02:24:29;;;;;;;26.63;23.77;;;;;;;9.71;84.14;93638.84;5060551;28;20189;-71
2022/11/17 02:27:25;;;;;;;24.63;20.80;;;;;;;9.62;84.35;93639.94;5057692;28;20213;-70
2022/11/17 02:30:12;;;;;;;24.60;21.57;;;;;;;9.54;84.77;93623.44;5061201;28;20263;-70
2022/11/17 02:33:03;;;;;;;25.17;21.37;;;;;;;9.67;84.11;93634.94;5061220;28;20181;-69
2022/11/17 02:35:54;;;;;;;25.53;22.03;;;;;;;9.75;83.65;93646.38;5058371;28;20186;-70
2022/11/17 02:38:48;;;;;;;25.60;22.00;;;;;;;9.58;83.82;93635.22;5059342;28;20247;-70
2022/11/17 02:41:21;;;;;;;24.23;21.60;;;;;;;9.58;83.88;93630.78;5065072;28;20304;-71
2022/11/17 02:44:10;;;;;;;22.87;20.40;;;;;;;9.54;84.04;93626.88;5059532;28;20200;-71
2022/11/17 02:46:39;;;;;;;25.33;21.77;;;;;;;9.64;83.51;93622.19;5061491;28;20271;-71
2022/11/17 02:49:13;;;;;;;21.07;18.63;;;;;;;9.55;83.60;93614.59;5063811;28;20251;-70
2022/11/17 02:51:41;;;;;;;25.47;21.67;;;;;;;9.48;83.76;93606.63;5059808;28;20296;-70
2022/11/17 02:54:08;;;;;;;25.53;20.80;;;;;;;9.49;84.71;93606.44;5060825;28;20193;-71
2022/11/17 02:56:42;;;;;;;23.43;20.33;;;;;;;9.42;84.84;93602.91;5063512;28;20205;-71
2022/11/17 02:59:12;;;;;;;24.80;20.43;;;;;;;9.48;85.12;93614.50;5061780;28;20224;-70
2022/11/17 03:02:06;;;;;;;20.47;18.37;;;;;;;9.63;84.64;93601.38;5063343;28;20205;-70
2022/11/17 03:04:45;;;;;;;21.47;18.97;;;;;;;9.73;83.59;93628.19;5055963;28;20556;-71
2022/11/17 03:07:32;;;;;;;23.10;18.80;;;;;;;9.81;82.54;93627.25;5062049;28;20207;-72
2022/11/17 03:10:13;;;;;;;19.83;17.40;;;;;;;9.71;82.42;93617.84;5064137;28;20220;-72
2022/11/17 03:13:00;;;;;;;24.97;19.40;;;;;;;9.64;82.94;93624.00;5056182;28;20225;-72
2022/11/17 03:16:10;;;;;;;21.87;19.13;;;;;;;9.61;83.37;93614.69;5060797;28;20201;-71
2022/11/17 03:19:17;;;;;;;19.97;17.53;;;;;;;9.69;82.93;93609.34;5057762;28;20283;-70
2022/11/17 03:22:30;;;;;;;20.87;16.97;;;;;;;9.56;84.00;93611.78;4973465;28;20207;-70
2022/11/17 03:25:03;;;;;;;18.80;16.63;;;;;;;9.81;83.26;93622.84;4921691;29;20239;-70
2022/11/17 03:27:34;;;;;;;20.73;18.27;;;;;;;9.81;82.85;93596.59;4933033;29;20197;-71
2022/11/17 03:30:04;;;;;;;19.93;17.83;;;;;;;9.72;83.08;93606.34;4915735;29;20264;-70
2022/11/17 03:32:35;;;;;;;21.27;18.20;;;;;;;9.80;83.08;93615.94;4922986;29;20193;-70
2022/11/17 03:35:07;;;;;;;21.77;17.97;;;;;;;9.79;82.83;93611.72;4924015;29;20193;-71
2022/11/17 03:37:35;;;;;;;20.10;17.13;;;;;;;9.71;83.22;93617.06;4920286;29;20360;-71
2022/11/17 03:40:06;;;;;;;21.30;17.77;;;;;;;9.67;83.34;93610.53;4921294;29;20190;-71
2022/11/17 03:42:35;;;;;;;21.70;18.13;;;;;;;9.59;83.78;93615.84;4937543;29;20227;-70
2022/11/17 03:45:13;;;;;;;21.93;18.53;;;;;;;9.75;83.90;93641.94;4935457;29;20201;-69
2022/11/17 03:47:39;;;;;;;22.00;18.23;;;;;;;9.76;83.40;93635.69;4931486;29;20306;-70
2022/11/17 03:50:12;;;;;;;22.67;19.07;;;;;;;9.67;83.59;93623.63;4924578;29;20291;-70
2022/11/17 03:52:37;;;;;;;24.73;19.77;;;;;;;9.60;84.42;93628.81;4931380;29;20193;-71
2022/11/17 03:55:04;;;;;;;19.93;17.83;;;;;;;9.65;84.51;93610.72;4955013;28;20215;-70
2022/11/17 03:57:43;;;;;;;22.03;19.30;;;;;;;9.66;84.63;93609.72;5060142;28;20204;-70
2022/11/17 04:00:14;;;;;;;23.00;19.13;;;;;;;9.65;85.01;93599.38;5059870;28;20193;-70
2022/11/17 04:02:41;;;;;;;21.27;19.03;;;;;;;9.60;85.45;93610.44;5054293;28;20223;-70
2022/11/17 04:05:07;;;;;;;21.57;18.70;;;;;;;9.88;84.29;93615.03;5058656;28;20200;-70
2022/11/17 04:07:44;;;;;;;21.60;18.63;;;;;;;9.85;84.04;93597.03;5062097;28;20189;-72
2022/11/17 04:10:12;;;;;;;22.37;19.07;;;;;;;9.78;83.95;93604.00;5043918;28;20193;-72
2022/11/17 04:18:07;;;;;;;20.03;17.93;;;;;;;9.74;84.03;93589.63;5077589;28;20248;-71
2022/11/17 04:20:36;;;;;;;21.83;18.27;;;;;;;9.69;84.53;93593.59;5068666;28;20196;-72
2022/11/17 04:23:07;;;;;;;21.10;18.73;;;;;;;9.65;85.13;93602.84;5066167;28;20211;-72
2022/11/17 04:28:38;;;;;;;21.50;19.23;;;;;;;9.72;85.04;93569.59;5078936;28;20195;-72
2022/11/17 04:31:11;;;;;;;20.63;18.47;;;;;;;9.80;84.74;93591.53;5071146;28;20260;-72
2022/11/17 04:33:39;;;;;;;20.63;17.73;;;;;;;9.77;84.69;93573.50;5067257;28;20196;-72
2022/11/17 04:36:06;;;;;;;20.13;18.03;;;;;;;9.76;84.54;93583.19;5064040;28;20211;-72
2022/11/17 04:38:32;;;;;;;21.60;18.90;;;;;;;9.87;84.32;93585.38;5067848;28;20234;-73
2022/11/17 04:43:51;;;;;;;19.77;17.43;;;;;;;9.76;84.43;93574.50;5077450;28;20235;-71
2022/11/17 04:46:18;;;;;;;23.13;19.20;;;;;;;9.83;84.54;93586.72;5067436;28;20192;-70
2022/11/17 04:48:43;;;;;;;21.63;19.50;;;;;;;9.85;84.10;93568.16;5063810;28;20231;-70
2022/11/17 04:51:09;;;;;;;22.03;18.50;;;;;;;9.64;85.37;93579.38;5064105;28;20648;-71
2022/11/17 04:53:35;;;;;;;21.17;18.33;;;;;;;9.78;85.19;93575.94;5075398;28;20241;-71
2022/11/17 04:56:02;;;;;;;25.47;19.47;;;;;;;9.86;84.79;93557.50;5076580;28;20189;-71
2022/11/17 04:58:27;;;;;;;22.37;18.97;;;;;;;9.75;85.29;93546.63;5061618;28;20189;-72
2022/11/17 05:00:53;;;;;;;22.17;19.47;;;;;;;9.59;86.30;93555.50;5065476;28;20188;-71
2022/11/17 05:03:18;;;;;;;22.53;20.13;;;;;;;9.78;86.03;93548.88;5068920;28;20549;-71
2022/11/17 05:05:45;;;;;;;24.90;20.57;;;;;;;9.81;86.02;93538.00;5066456;28;20192;-70
2022/11/17 05:08:10;;;;;;;24.30;20.37;;;;;;;9.78;86.25;93554.13;5064788;28;20185;-69
2022/11/17 05:13:20;;;;;;;24.30;19.17;;;;;;;9.78;85.37;93546.25;5079771;28;20253;-69
2022/11/17 05:18:30;;;;;;;23.97;20.03;;;;;;;9.74;85.92;93547.63;5079055;28;20227;-68
2022/11/17 05:21:01;;;;;;;21.30;19.07;;;;;;;9.74;85.80;93542.38;5068909;28;20213;-69
2022/11/17 05:26:10;;;;;;;21.63;18.97;;;;;;;9.75;86.05;93544.81;5081860;28;20226;-66
2022/11/17 05:28:36;;;;;;;22.47;19.77;;;;;;;9.81;85.53;93546.72;5063126;28;20279;-66
2022/11/17 05:31:01;;;;;;;21.57;18.17;;;;;;;9.78;85.83;93533.13;5058907;28;20199;-68
2022/11/17 05:33:26;;;;;;;21.40;17.83;;;;;;;9.77;86.06;93521.00;5063722;28;20199;-72
2022/11/17 05:35:52;;;;;;;22.77;18.70;;;;;;;9.74;86.19;93510.88;5058380;28;20542;-74
2022/11/17 05:38:17;;;;;;;22.67;19.97;;;;;;;9.80;85.54;93510.94;5063168;28;20188;-68
2022/11/17 05:40:43;;;;;;;22.90;19.83;;;;;;;9.75;85.70;93512.50;5068922;28;20279;-71
2022/11/17 05:43:08;;;;;;;21.83;19.47;;;;;;;9.70;86.45;93531.41;5066240;28;20220;-68
2022/11/17 05:45:33;;;;;;;20.47;18.27;;;;;;;9.70;86.95;93531.41;5061824;28;20195;-68
2022/11/17 05:47:59;;;;;;;22.63;20.13;;;;;;;9.84;86.11;93546.34;5072553;28;20224;-68
2022/11/17 05:50:24;;;;;;;24.17;20.90;;;;;;;9.84;85.44;93556.84;5064473;28;20187;-73
2022/11/17 05:52:50;;;;;;;22.83;20.37;;;;;;;9.82;85.85;93560.66;5074222;28;20195;-69
2022/11/17 05:55:15;;;;;;;22.33;20.03;;;;;;;9.81;85.68;93543.25;5066027;28;20930;-69
2022/11/17 05:57:41;;;;;;;22.87;20.37;;;;;;;9.75;86.47;93534.31;5063651;28;20192;-69
2022/11/17 06:00:07;;;;;;;27.17;23.90;;;;;;;9.81;86.33;93559.84;5067706;28;20216;-69
2022/11/17 06:02:48;;;;;;;24.43;21.80;;;;;;;9.87;85.92;93553.84;5070890;28;20201;-69
2022/11/17 06:05:14;;;;;;;23.57;20.77;;;;;;;9.84;85.93;93550.78;5067140;28;20291;-69
2022/11/17 06:07:40;;;;;;;23.63;20.67;;;;;;;9.81;86.23;93541.47;5065256;28;20202;-68
2022/11/17 06:10:06;;;;;;;24.07;20.70;;;;;;;9.85;86.42;93529.59;5068533;28;20576;-67
2022/11/17 06:12:31;;;;;;;26.07;22.03;;;;;;;9.76;85.51;93525.44;5069012;28;20192;-67
2022/11/17 06:14:57;;;;;;;25.53;22.60;;;;;;;9.56;86.73;93548.81;5064060;28;20196;-67
2022/11/17 06:17:36;;;;;;;25.20;21.43;;;;;;;9.59;87.41;93558.94;5067492;28;20187;-70
2022/11/17 06:20:11;;;;;;;24.57;21.97;;;;;;;9.74;87.48;93560.75;5065590;28;20188;-69
2022/11/17 06:22:36;;;;;;;24.07;20.97;;;;;;;9.80;87.27;93570.50;5080785;28;20234;-70
2022/11/17 06:25:05;;;;;;;26.00;21.43;;;;;;;9.68;87.60;93576.22;5068118;28;20188;-68
2022/11/17 06:27:32;;;;;;;22.30;19.90;;;;;;;9.84;86.68;93579.66;5071117;28;20184;-70
2022/11/17 06:30:00;;;;;;;22.00;19.13;;;;;;;9.78;86.64;93625.81;5065534;28;20272;-69
2022/11/17 06:32:27;;;;;;;21.27;18.70;;;;;;;9.84;86.03;93606.72;5058771;28;20269;-69
2022/11/17 06:34:52;;;;;;;22.93;18.43;;;;;;;9.76;86.75;93616.50;5076671;28;20215;-66
2022/11/17 06:37:19;;;;;;;21.97;18.37;;;;;;;9.93;86.46;93645.00;5062469;28;20248;-66
2022/11/17 06:39:47;;;;;;;20.83;17.63;;;;;;;9.86;86.44;93641.50;5065897;28;20256;-64
2022/11/17 06:42:13;;;;;;;19.97;17.87;;;;;;;9.90;86.50;93663.75;5064523;28;20211;-67
2022/11/17 06:44:38;;;;;;;22.83;18.57;;;;;;;9.94;86.53;93686.03;5059695;28;20241;-68
2022/11/17 06:47:04;;;;;;;23.97;17.10;;;;;;;9.96;86.45;93667.47;5056213;28;20204;-68
2022/11/17 06:49:30;;;;;;;21.37;18.23;;;;;;;10.05;85.96;93678.69;5063045;28;20192;-68
2022/11/17 06:51:55;;;;;;;21.83;18.03;;;;;;;10.06;86.34;93690.84;5065063;28;20181;-72
2022/11/17 06:54:20;;;;;;;19.97;16.83;;;;;;;10.02;86.83;93672.00;5065543;28;20192;-66
2022/11/17 06:56:48;;;;;;;19.20;17.07;;;;;;;10.00;87.13;93705.50;5066695;28;20275;-63
2022/11/17 06:59:14;;;;;;;20.10;16.77;;;;;;;10.09;87.01;93743.00;5058623;28;20219;-63
2022/11/17 07:01:40;;;;;;;25.73;17.53;;;;;;;10.09;87.97;93775.34;5069591;28;20204;-69
2022/11/17 07:04:06;;;;;;;19.20;17.20;;;;;;;10.08;88.66;93770.28;5063566;28;20189;-70
2022/11/17 07:06:35;;;;;;;18.57;16.53;;;;;;;10.08;89.06;93765.03;5077440;28;20184;-70
2022/11/17 07:09:01;;;;;;;20.60;15.60;;;;;;;10.10;89.19;93752.50;5057154;28;20276;-69
2022/11/17 07:11:26;;;;;;;13.97;12.57;;;;;;;10.02;89.58;93739.47;5066009;28;20298;-68
2022/11/17 07:13:51;;;;;;;14.97;13.50;;;;;;;10.05;89.55;93721.56;5066127;28;20225;-67
2022/11/17 07:16:21;;;;;;;11.70;10.53;;;;;;;10.15;89.12;93724.69;5066831;28;20265;-69
2022/11/17 07:18:46;;;;;;;10.67;9.57;;;;;;;10.27;87.20;93706.72;5062047;28;20199;-68
2022/11/17 07:21:13;;;;;;;10.70;9.60;;;;;;;10.27;87.55;93679.63;5063302;28;20227;-66
2022/11/17 07:23:40;;;;;;;8.90;7.93;;;;;;;10.31;86.84;93670.38;5059452;28;20648;-67
2022/11/17 07:26:06;;;;;;;7.23;5.47;;;;;;;10.32;86.44;93654.44;5056792;28;20262;-64
2022/11/17 07:28:33;;;;;;;5.57;5.10;;;;;;;10.42;86.06;93637.56;5063248;28;20184;-64
2022/11/17 07:31:04;;;;;;;7.17;4.87;;;;;;;10.45;85.15;93624.06;5064695;28;20188;-63
2022/11/17 07:33:30;;;;;;;4.80;3.53;;;;;;;10.66;82.54;93602.25;5064047;28;20212;-68
2022/11/17 07:36:00;;;;;;;3.00;2.20;;;;;;;10.71;79.44;93586.72;5058455;28;20184;-68
2022/11/17 07:38:25;;;;;;;3.23;2.50;;;;;;;10.72;80.43;93564.69;5065599;28;20193;-68
2022/11/17 07:40:51;;;;;;;2.73;2.10;;;;;;;10.76;79.97;93579.91;5067182;28;20276;-69
2022/11/17 07:43:16;;;;;;;2.80;2.00;;;;;;;10.83;79.60;93593.13;5064091;28;20203;-66
2022/11/17 07:45:41;;;;;;;3.00;2.63;;;;;;;10.83;80.10;93593.13;5059227;28;20236;-65
2022/11/17 07:48:07;;;;;;;4.30;3.60;;;;;;;10.82;80.43;93583.59;5064847;28;20196;-69
2022/11/17 07:50:33;;;;;;;4.03;3.73;;;;;;;10.78;81.74;93564.75;5060368;28;20777;-68
2022/11/17 07:52:59;;;;;;;7.03;5.20;;;;;;;10.77;83.18;93541.28;5072350;28;20180;-67
2022/11/17 07:55:24;;;;;;;6.67;6.07;;;;;;;10.77;84.25;93543.91;5082674;28;20199;-66
2022/11/17 07:57:58;;;;;;;8.50;6.30;;;;;;;10.94;83.47;93547.91;5069117;28;20185;-69
2022/11/17 08:00:25;;;;;;;10.23;8.77;;;;;;;11.07;83.42;93577.97;5068048;28;20192;-70
2022/11/17 08:02:50;;;;;;;8.10;7.30;;;;;;;11.23;82.63;93580.31;5080158;28;20296;-72
2022/11/17 08:05:16;;;;;;;6.83;6.10;;;;;;;11.34;81.64;93592.94;5063253;28;20275;-71
2022/11/17 08:07:45;;;;;;;6.70;5.83;;;;;;;11.63;80.46;93601.66;5066728;28;20184;-71
2022/11/17 08:10:12;;;;;;;4.90;4.47;;;;;;;11.72;79.58;93608.38;5068311;28;20211;-71
2022/11/17 08:12:38;;;;;;;4.33;3.60;;;;;;;11.80;77.31;93608.22;5066814;28;20200;-68
2022/11/17 08:15:04;;;;;;;5.73;2.90;;;;;;;11.81;77.08;93607.22;5065668;28;20199;-66
2022/11/17 08:17:30;;;;;;;5.20;2.70;;;;;;;11.95;77.07;93617.84;5062414;28;20191;-66
2022/11/17 08:19:56;;;;;;;3.97;3.53;;;;;;;11.79;76.96;93632.16;5061609;28;20208;-67
2022/11/17 08:22:22;;;;;;;4.50;4.10;;;;;;;11.65;78.37;93642.59;5061522;28;20251;-68
2022/11/17 08:24:47;;;;;;;5.17;4.67;;;;;;;11.59;78.97;93642.53;5063722;28;20299;-68
2022/11/17 08:27:13;;;;;;;2.50;2.20;;;;;;;11.67;76.30;93652.91;5063693;28;20266;-67
2022/11/17 08:29:38;;;;;;;3.20;2.40;;;;;;;11.59;75.41;93655.69;5068494;28;20320;-69
2022/11/17 08:32:04;;;;;;;5.43;4.30;;;;;;;11.51;76.64;93667.16;5070672;28;20272;-67
2022/11/17 08:34:29;;;;;;;5.30;4.53;;;;;;;11.40;78.40;93665.88;5060257;28;20223;-68
2022/11/17 08:36:55;;;;;;;3.37;2.40;;;;;;;11.59;74.30;93661.75;5074023;28;20187;-66
2022/11/17 08:39:20;;;;;;;4.43;2.07;;;;;;;11.64;72.11;93672.53;5068076;28;20185;-68
2022/11/17 08:41:46;;;;;;;4.33;3.20;;;;;;;11.57;72.41;93669.03;5066695;28;20212;-64
2022/11/17 08:44:11;;;;;;;7.77;5.17;;;;;;;11.47;75.78;93663.31;5066844;28;20283;-66
2022/11/17 08:46:36;;;;;;;6.83;5.73;;;;;;;11.44;76.92;93675.03;5082101;28;20193;-66
2022/11/17 08:49:02;;;;;;;9.93;6.30;;;;;;;11.37;78.33;93676.78;5068252;28;20256;-65
2022/11/17 08:51:28;;;;;;;9.33;6.27;;;;;;;11.47;78.78;93679.91;5062383;28;20188;-68
2022/11/17 08:53:54;;;;;;;7.30;6.57;;;;;;;11.57;78.85;93682.19;5075226;28;20184;-68
2022/11/17 08:56:20;;;;;;;9.03;7.07;;;;;;;11.65;79.52;93673.34;5068016;28;20184;-66
2022/11/17 08:58:46;;;;;;;9.07;7.57;;;;;;;11.85;78.28;93689.31;5060883;28;20305;-68
2022/11/17 09:01:17;;;;;;;10.00;7.87;;;;;;;11.93;77.76;93685.75;5059629;28;20184;-65
2022/11/17 09:03:44;;;;;;;9.13;8.00;;;;;;;11.92;76.79;93674.38;5066737;28;20188;-66
2022/11/17 09:06:13;;;;;;;12.67;8.73;;;;;;;12.01;76.07;93675.06;5065811;28;20197;-66
2022/11/17 09:08:38;;;;;;;12.03;8.30;;;;;;;12.05;76.51;93684.19;5079227;28;20184;-65
2022/11/17 09:11:06;;;;;;;13.77;9.77;;;;;;;11.98;76.68;93686.78;5079372;28;20188;-65
2022/11/17 09:13:32;;;;;;;9.73;8.77;;;;;;;12.01;77.29;93677.69;5068648;28;20224;-65
2022/11/17 09:16:05;;;;;;;10.13;9.13;;;;;;;12.05;76.60;93684.19;5068190;28;20181;-64
2022/11/17 09:18:32;;;;;;;11.93;10.40;;;;;;;12.09;76.95;93680.97;5069836;28;20265;-68
2022/11/17 09:21:06;;;;;;;14.07;11.80;;;;;;;12.12;77.00;93661.34;5072228;28;20180;-72
2022/11/17 09:23:31;;;;;;;12.03;10.40;;;;;;;12.18;77.14;93671.09;5067679;28;20267;-71
2022/11/17 09:26:02;;;;;;;12.40;10.40;;;;;;;12.20;77.06;93661.19;5066539;28;20284;-73
2022/11/17 09:28:28;;;;;;;12.27;10.97;;;;;;;12.24;77.27;93667.69;5077816;28;20215;-71
2022/11/17 09:30:53;;;;;;;11.37;10.10;;;;;;;12.25;77.30;93679.03;5068508;28;20498;-70
2022/11/17 09:33:18;;;;;;;11.38;10.18;;;;;;;12.35;76.95;93667.13;5070664;28;20214;-68
2022/11/17 09:35:45;;;;;;;13.38;10.88;;;;;;;12.45;77.33;93679.13;5066118;28;20208;-71
2022/11/17 09:38:10;;;;;;;13.50;10.48;;;;;;;12.49;77.13;93675.13;5068833;28;20187;-71
2022/11/17 09:40:39;;;;;;;12.30;10.67;;;;;;;12.46;77.09;93664.97;5068915;28;20188;-72
2022/11/17 09:43:14;;;;;;;13.60;11.17;;;;;;;12.39;77.25;93674.66;5065784;28;20204;-74
2022/11/17 09:45:39;;;;;;;15.67;10.23;;;;;;;12.34;77.73;93680.50;5064231;28;20231;-72
2022/11/17 09:48:10;;;;;;;14.60;11.07;;;;;;;12.38;77.63;93687.03;5063029;28;20322;-70
2022/11/17 09:50:38;;;;;;;13.00;10.17;;;;;;;12.45;77.42;93679.94;5070345;28;20192;-71
2022/11/17 09:53:21;;;;;;;13.60;11.07;;;;;;;12.51;77.74;93673.06;5063616;28;20188;-70
2022/11/17 09:55:54;;;;;;;12.47;10.10;;;;;;;12.63;77.28;93674.16;5071127;28;20700;-71
2022/11/17 09:58:43;;;;;;;11.97;10.20;;;;;;;12.65;76.64;93672.13;5079426;28;20215;-71
2022/11/17 10:01:11;;;;;;;11.27;10.17;;;;;;;12.54;76.97;93662.97;5072397;28;20184;-70
2022/11/17 10:03:40;;;;;;;10.37;9.20;;;;;;;12.54;76.80;93668.25;5070484;28;20196;-69
2022/11/17 10:06:13;;;;;;;12.13;10.43;;;;;;;12.53;77.42;93671.88;5069143;28;20275;-72
2022/11/17 10:08:51;;;;;;;10.00;9.03;;;;;;;12.56;77.06;93662.75;5079142;28;20213;-68
2022/11/17 10:11:32;;;;;;;9.63;8.73;;;;;;;12.58;76.80;93664.19;5083421;28;20194;-71
2022/11/17 10:14:03;;;;;;;12.40;9.17;;;;;;;12.72;76.65;93659.78;5082579;28;20228;-73
2022/11/17 10:16:30;;;;;;;12.40;9.20;;;;;;;12.64;76.41;93656.50;5081894;28;20191;-64
2022/11/17 10:18:56;;;;;;;9.40;8.07;;;;;;;12.57;76.55;93659.13;5070282;28;20192;-64
2022/11/17 10:21:21;;;;;;;9.60;8.60;;;;;;;12.75;76.22;93666.47;5060290;28;20330;-67
2022/11/17 10:23:55;;;;;;;10.00;9.00;;;;;;;12.60;76.99;93668.47;5065030;28;20204;-70
2022/11/17 10:26:21;;;;;;;10.70;9.23;;;;;;;12.54;77.96;93662.16;5067218;28;20196;-69
2022/11/17 10:28:47;;;;;;;11.10;9.50;;;;;;;12.60;77.43;93664.00;5063872;28;20197;-68
2022/11/17 10:31:16;;;;;;;10.50;8.87;;;;;;;12.62;76.57;93654.06;5078090;28;20188;-67
2022/11/17 10:33:47;;;;;;;10.97;9.30;;;;;;;12.82;76.00;93661.22;5073069;28;20190;-62
2022/11/17 10:36:29;;;;;;;9.60;8.60;;;;;;;12.90;75.35;93647.84;5078162;28;20270;-69
2022/11/17 10:38:57;;;;;;;12.17;9.30;;;;;;;12.65;75.77;93648.41;5061579;28;20205;-68
2022/11/17 10:41:35;;;;;;;10.67;9.20;;;;;;;12.91;75.23;93649.47;5061236;28;20200;-65
2022/11/17 10:44:15;;;;;;;10.27;8.77;;;;;;;12.82;75.52;93656.75;5062823;28;20188;-68
2022/11/17 10:46:59;;;;;;;17.60;15.63;;;;;;;12.81;76.78;93641.97;5067271;28;20199;-63
2022/11/17 10:49:31;;;;;;;11.80;10.27;;;;;;;13.11;76.27;93642.41;5066537;28;20211;-69
2022/11/17 10:52:10;;;;;;;11.83;8.97;;;;;;;12.91;75.03;93645.03;5063490;28;20176;-67
2022/11/17 10:54:36;;;;;;;9.87;8.83;;;;;;;13.13;74.77;93650.94;5056130;28;20191;-69
2022/11/17 10:57:06;;;;;;;10.73;9.70;;;;;;;13.33;74.23;93645.72;5063549;28;20185;-69
2022/11/17 10:59:43;;;;;;;10.30;9.20;;;;;;;13.40;73.51;93654.47;5070499;28;20181;-66
2022/11/17 11:02:30;;;;;;;9.75;8.68;;;;;;;13.57;74.23;93657.50;5062452;28;20220;-68
2022/11/17 11:05:12;;;;;;;10.03;8.00;;;;;;;13.86;73.47;93648.34;5065958;28;20271;-69
2022/11/17 11:07:38;;;;;;;12.13;9.18;;;;;;;13.98;71.62;93658.28;5064836;28;20192;-68
2022/11/17 11:10:28;;;;;;;9.63;8.73;;;;;;;13.85;72.95;93664.44;5066494;28;20184;-71
2022/11/17 11:13:00;;;;;;;11.93;8.63;;;;;;;13.86;72.65;93664.19;5067569;28;20217;-73
2022/11/17 11:15:31;;;;;;;11.40;7.97;;;;;;;13.77;73.13;93662.00;5066772;28;20181;-74
2022/11/17 11:17:57;;;;;;;10.43;9.10;;;;;;;14.07;70.67;93651.78;5062048;28;20392;-68
2022/11/17 11:20:49;;;;;;;8.55;6.75;;;;;;;13.79;71.24;93654.66;5065500;28;20284;-72
2022/11/17 11:23:33;;;;;;;7.95;7.18;;;;;;;13.81;72.18;93650.78;5058818;28;20204;-72
2022/11/17 11:26:23;;;;;;;7.60;6.80;;;;;;;14.02;71.51;93662.97;5060086;28;20252;-66
2022/11/17 11:29:22;;;;;;;8.52;6.18;;;;;;;14.39;69.08;93652.72;5061701;28;20222;-67
2022/11/17 11:31:56;;;;;;;5.35;4.80;;;;;;;14.99;67.65;93657.78;4962550;28;20287;-68
2022/11/17 11:34:34;;;;;;;6.65;5.53;;;;;;;15.48;66.46;93648.31;4965750;28;20235;-68
2022/11/17 11:37:11;;;;;;;5.00;4.15;;;;;;;15.63;64.37;93661.22;4982257;28;20200;-64
2022/11/17 11:39:59;;;;;;;7.10;5.25;;;;;;;15.47;64.46;93651.16;4967092;28;20263;-69
2022/11/17 11:42:49;;;;;;;8.18;5.03;;;;;;;15.08;64.84;93656.50;4960000;28;20224;-73
2022/11/17 11:45:39;;;;;;;5.68;4.95;;;;;;;15.09;65.07;93654.69;4969417;28;20187;-68
2022/11/17 11:48:43;;;;;;;5.78;5.15;;;;;;;15.11;66.81;93655.28;4968730;28;20278;-70
2022/11/17 11:51:18;;;;;;;8.57;5.97;;;;;;;15.28;65.72;93652.94;4944661;28;20200;-70
2022/11/17 11:53:59;;;;;;;7.13;6.10;;;;;;;15.31;65.31;93647.19;4943599;28;20184;-66
2022/11/17 11:56:38;;;;;;;6.47;5.30;;;;;;;15.22;65.64;93644.81;4947977;28;20204;-70
2022/11/17 11:59:06;;;;;;;6.55;5.35;;;;;;;15.12;66.45;93648.94;4950847;28;20188;-67
2022/11/17 12:02:00;;;;;;;7.07;5.63;;;;;;;15.20;65.36;93652.16;4959604;28;20665;-72
2022/11/17 12:04:32;;;;;;;6.40;5.63;;;;;;;15.09;64.94;93657.31;4948741;28;20192;-66
2022/11/17 12:07:11;;;;;;;5.13;4.72;;;;;;;15.50;65.05;93656.84;4948872;28;20217;-71
2022/11/17 12:10:00;;;;;;;5.10;4.32;;;;;;;17.09;59.97;93656.31;5004767;28;20205;-68
2022/11/17 12:12:30;;;;;;;4.40;4.00;;;;;;;17.15;59.25;93660.69;5026694;28;20193;-67